createdAt,value
2022-12-12T00:01:31.427Z,25.73
2022-12-12T00:04:20.150Z,34.55
2022-12-12T00:07:08.484Z,38.63
2022-12-12T00:09:56.859Z,34.38
2022-12-12T00:12:45.229Z,37.47
2022-12-12T00:15:33.567Z,34.45
2022-12-12T00:18:23.293Z,35.53
2022-12-12T00:21:15.877Z,36.30
2022-12-12T00:24:04.561Z,33.10
2022-12-12T00:26:52.902Z,36.05
2022-12-12T00:29:41.245Z,35.03
2022-12-12T00:32:30.318Z,34.28
2022-12-12T00:35:19.995Z,31.73
2022-12-12T00:38:08.332Z,36.72
2022-12-12T00:40:57.874Z,35.40
2022-12-12T00:43:46.937Z,35.33
2022-12-12T00:46:35.314Z,36.42
2022-12-12T00:49:23.642Z,33.97
2022-12-12T00:52:13.946Z,33.30
2022-12-12T00:55:02.279Z,31.33
2022-12-12T00:57:50.585Z,37.20
2022-12-12T01:00:41.407Z,31.77
2022-12-12T01:03:29.761Z,34.60
2022-12-12T01:06:18.773Z,30.65
2022-12-12T01:09:08.524Z,33.08
2022-12-12T01:11:56.895Z,32.70
2022-12-12T01:14:45.350Z,32.08
2022-12-12T01:17:37.676Z,34.35
2022-12-12T01:20:29.229Z,35.33
2022-12-12T01:23:17.614Z,35.78
2022-12-12T01:26:09.678Z,36.75
2022-12-12T01:28:57.995Z,34.85
2022-12-12T01:31:46.354Z,37.13
2022-12-12T01:34:34.693Z,36.33
2022-12-12T01:37:23.084Z,34.78
2022-12-12T01:40:16.738Z,36.80
2022-12-12T01:43:12.500Z,37.53
2022-12-12T01:46:30.769Z,38.88
2022-12-12T01:49:23.947Z,36.63
2022-12-12T01:52:18.867Z,39.30
2022-12-12T01:55:12.082Z,38.60
2022-12-12T01:58:00.805Z,37.08
2022-12-12T02:00:50.480Z,41.10
2022-12-12T02:03:39.899Z,40.78
2022-12-12T02:06:30.102Z,39.30
2022-12-12T02:09:19.948Z,33.35
2022-12-12T02:12:08.548Z,38.97
2022-12-12T02:14:57.005Z,34.47
2022-12-12T02:18:03.544Z,42.05
2022-12-12T02:21:05.417Z,37.72
2022-12-12T02:24:25.873Z,33.47
2022-12-12T02:27:42.463Z,32.58
2022-12-12T02:30:41.496Z,37.35
2022-12-12T02:33:40.102Z,37.42
2022-12-12T02:36:36.939Z,39.00
2022-12-12T02:39:30.683Z,33.05
2022-12-12T02:42:26.568Z,34.90
2022-12-12T02:45:21.479Z,36.58
2022-12-12T02:48:15.409Z,34.95
2022-12-12T02:51:07.716Z,35.08
2022-12-12T02:53:56.077Z,29.70
2022-12-12T02:56:51.967Z,32.92
2022-12-12T02:59:43.030Z,28.67
2022-12-12T03:03:34.204Z,29.88
2022-12-12T03:06:55.453Z,25.98
2022-12-12T03:10:00.844Z,34.55
2022-12-12T03:13:00.410Z,30.52
2022-12-12T03:15:57.675Z,32.15
2022-12-12T03:18:57.814Z,29.08
2022-12-12T03:21:52.640Z,31.80
2022-12-12T03:24:48.684Z,31.73
2022-12-12T03:27:41.908Z,31.90
2022-12-12T03:30:35.606Z,31.23
2022-12-12T03:33:28.435Z,32.70
2022-12-12T03:36:20.107Z,35.45
2022-12-12T03:39:18.145Z,28.10
2022-12-12T03:42:10.320Z,31.88
2022-12-12T03:45:03.146Z,30.15
2022-12-12T03:47:55.811Z,31.55
2022-12-12T03:50:48.190Z,30.15
2022-12-12T03:53:41.779Z,31.13
2022-12-12T03:56:35.060Z,30.02
2022-12-12T03:59:27.842Z,31.95
2022-12-12T04:02:21.774Z,31.35
2022-12-12T04:05:17.491Z,30.45
2022-12-12T04:08:11.076Z,33.53
2022-12-12T04:11:23.780Z,34.13
2022-12-12T04:14:23.827Z,36.03
2022-12-12T04:17:16.790Z,32.53
2022-12-12T04:20:41.361Z,30.00
2022-12-12T04:23:35.906Z,31.85
2022-12-12T04:26:41.108Z,32.20
2022-12-12T04:29:37.461Z,32.58
2022-12-12T04:32:29.636Z,30.85
2022-12-12T04:35:22.514Z,29.58
2022-12-12T04:38:14.652Z,34.72
2022-12-12T04:41:05.982Z,32.17
2022-12-12T04:46:48.495Z,27.87
2022-12-12T04:49:38.824Z,30.95
2022-12-12T04:52:28.987Z,30.37
2022-12-12T04:55:23.035Z,30.50
2022-12-12T04:58:12.278Z,28.55
2022-12-12T05:01:05.512Z,27.63
2022-12-12T05:03:58.225Z,35.10
2022-12-12T05:06:51.061Z,34.25
2022-12-12T05:09:39.940Z,31.02
2022-12-12T05:12:28.644Z,31.40
2022-12-12T05:15:18.946Z,31.02
2022-12-12T05:18:10.045Z,23.63
2022-12-12T05:20:59.682Z,34.70
2022-12-12T05:23:48.012Z,29.13
2022-12-12T05:26:37.548Z,33.10
2022-12-12T05:29:25.908Z,30.65
2022-12-12T05:32:14.221Z,32.33
2022-12-12T05:35:02.667Z,29.00
2022-12-12T05:37:52.482Z,30.27
2022-12-12T05:40:40.786Z,30.92
2022-12-12T05:43:29.163Z,29.90
2022-12-12T05:46:17.833Z,33.67
2022-12-12T05:49:06.205Z,32.03
2022-12-12T05:51:54.545Z,35.38
2022-12-12T05:54:44.179Z,33.67
2022-12-12T05:57:32.578Z,35.20
2022-12-12T06:00:21.648Z,31.65
2022-12-12T06:03:10.071Z,32.08
2022-12-12T06:06:00.874Z,33.35
2022-12-12T06:08:49.171Z,37.63
2022-12-12T06:11:38.910Z,35.70
2022-12-12T06:14:27.753Z,34.30
2022-12-12T06:17:16.124Z,40.28
2022-12-12T06:20:05.414Z,33.05
2022-12-12T06:22:54.133Z,41.47
2022-12-12T06:25:42.636Z,37.65
2022-12-12T06:28:32.578Z,38.08
2022-12-12T06:31:21.009Z,34.28
2022-12-12T06:34:09.397Z,37.28
2022-12-12T06:36:57.742Z,36.00
2022-12-12T06:39:46.933Z,39.70
2022-12-12T06:42:35.370Z,35.78
2022-12-12T06:45:25.029Z,33.05
2022-12-12T06:48:13.418Z,32.28
2022-12-12T06:51:06.241Z,37.60
2022-12-12T06:53:54.791Z,36.97
2022-12-12T06:56:48.057Z,35.53
2022-12-12T06:59:36.972Z,34.55
2022-12-12T07:02:30.087Z,34.67
2022-12-12T07:05:18.771Z,39.20
2022-12-12T07:08:07.750Z,36.30
2022-12-12T07:10:56.311Z,38.78
2022-12-12T07:13:45.237Z,39.60
2022-12-12T07:16:33.658Z,41.70
2022-12-12T07:19:23.767Z,36.80
2022-12-12T07:22:12.104Z,36.95
2022-12-12T07:25:00.507Z,42.70
2022-12-12T07:27:48.866Z,35.20
2022-12-12T07:30:40.743Z,39.63
2022-12-12T07:33:41.088Z,35.30
2022-12-12T07:36:33.240Z,38.63
2022-12-12T07:39:21.663Z,37.13
2022-12-12T07:42:10.008Z,37.53
2022-12-12T07:44:58.355Z,41.53
2022-12-12T07:47:46.697Z,36.22
2022-12-12T07:50:35.075Z,36.80
2022-12-12T07:53:24.743Z,39.22
2022-12-12T07:56:15.539Z,39.72
2022-12-12T07:59:03.995Z,34.95
2022-12-12T08:01:52.420Z,43.53
2022-12-12T08:04:40.914Z,33.25
2022-12-12T08:07:29.290Z,34.17
2022-12-12T08:10:19.274Z,34.10
2022-12-12T08:13:07.802Z,35.22
2022-12-12T08:15:56.219Z,32.72
2022-12-12T08:18:45.002Z,38.75
2022-12-12T08:21:33.515Z,35.25
2022-12-12T08:24:21.972Z,36.08
2022-12-12T08:27:15.486Z,36.03
2022-12-12T08:30:05.261Z,35.83
2022-12-12T08:32:53.608Z,34.85
2022-12-12T08:35:41.977Z,35.90
2022-12-12T08:38:30.456Z,32.85
2022-12-12T08:41:19.972Z,33.15
2022-12-12T08:44:11.335Z,34.08
2022-12-12T08:49:48.041Z,39.50
2022-12-12T08:52:36.403Z,37.00
2022-12-12T08:55:24.993Z,33.65
2022-12-12T08:58:13.291Z,30.90
2022-12-12T09:01:03.783Z,33.17
2022-12-12T09:03:53.873Z,33.88
2022-12-12T09:06:42.457Z,38.30
2022-12-12T09:09:31.203Z,35.72
2022-12-12T09:12:19.601Z,36.63
2022-12-12T09:15:09.013Z,37.42
2022-12-12T09:17:58.795Z,32.95
2022-12-12T09:20:50.580Z,31.30
2022-12-12T09:23:38.977Z,36.45
2022-12-12T09:26:27.345Z,33.53
2022-12-12T09:29:15.946Z,32.75
2022-12-12T09:32:06.578Z,32.00
2022-12-12T09:34:56.381Z,24.05
2022-12-12T09:37:44.719Z,36.22
2022-12-12T09:40:40.705Z,33.72
2022-12-12T09:43:32.454Z,28.98
2022-12-12T09:46:31.153Z,27.48
2022-12-12T09:49:27.497Z,28.02
2022-12-12T09:52:20.376Z,31.83
2022-12-12T09:55:27.680Z,30.80
2022-12-12T09:58:21.887Z,30.80
2022-12-12T10:01:20.133Z,29.35
2022-12-12T10:04:18.511Z,33.20
2022-12-12T10:07:14.611Z,32.33
2022-12-12T10:10:14.337Z,32.75
2022-12-12T10:13:05.147Z,32.65
2022-12-12T10:15:57.514Z,23.65
2022-12-12T10:18:49.728Z,31.10
2022-12-12T10:21:40.861Z,32.75
2022-12-12T10:24:34.306Z,32.03
2022-12-12T10:27:26.124Z,34.92
2022-12-12T10:30:20.401Z,33.70
2022-12-12T10:33:23.188Z,38.75
2022-12-12T10:36:20.620Z,34.92
2022-12-12T10:39:16.506Z,36.53
2022-12-12T10:42:13.037Z,35.38
2022-12-12T10:45:25.708Z,35.50
2022-12-12T10:48:14.193Z,39.80
2022-12-12T10:51:06.312Z,39.55
2022-12-12T10:53:54.700Z,37.17
2022-12-12T10:57:11.839Z,35.78
2022-12-12T11:00:16.905Z,35.00
2022-12-12T11:03:24.925Z,33.60
2022-12-12T11:06:16.424Z,28.25
2022-12-12T11:09:09.966Z,27.27
2022-12-12T11:12:00.395Z,25.70
2022-12-12T11:14:52.197Z,27.73
2022-12-12T11:17:41.195Z,28.95
2022-12-12T11:20:29.680Z,26.23
2022-12-12T11:23:20.840Z,28.10
2022-12-12T11:26:14.942Z,29.67
2022-12-12T11:29:06.902Z,27.40
2022-12-12T11:31:57.571Z,30.33
2022-12-12T11:34:50.147Z,30.92
2022-12-12T11:37:46.365Z,28.88
2022-12-12T11:40:37.451Z,27.20
2022-12-12T11:43:27.952Z,26.90
2022-12-12T11:46:19.875Z,26.17
2022-12-12T11:49:20.302Z,24.05
2022-12-12T11:52:19.979Z,28.90
2022-12-12T11:55:15.970Z,28.15
2022-12-12T11:58:17.187Z,28.83
2022-12-12T12:01:10.911Z,28.85
2022-12-12T12:04:18.342Z,27.63
2022-12-12T12:07:21.084Z,26.58
2022-12-12T12:10:22.547Z,27.20
2022-12-12T12:13:34.971Z,27.88
2022-12-12T12:16:30.507Z,28.00
2022-12-12T12:19:27.688Z,32.63
2022-12-12T12:22:28.828Z,30.10
2022-12-12T12:25:28.537Z,30.52
2022-12-12T12:28:56.249Z,30.10
2022-12-12T12:31:55.117Z,33.63
2022-12-12T12:34:57.195Z,32.22
2022-12-12T12:37:56.276Z,36.53
2022-12-12T12:41:12.784Z,30.42
2022-12-12T12:44:13.595Z,32.35
2022-12-12T12:47:10.986Z,30.65
2022-12-12T12:50:05.830Z,27.88
2022-12-12T12:52:58.566Z,32.67
2022-12-12T12:55:51.989Z,33.47
2022-12-12T12:58:46.165Z,33.22
2022-12-12T13:01:40.067Z,31.58
2022-12-12T13:04:35.246Z,31.55
2022-12-12T13:07:40.654Z,27.95
2022-12-12T13:10:31.520Z,35.35
2022-12-12T13:13:24.980Z,32.75
2022-12-12T13:16:17.595Z,29.08
2022-12-12T13:19:10.707Z,27.50
2022-12-12T13:22:05.588Z,32.05
2022-12-12T13:25:00.670Z,30.08
2022-12-12T13:27:53.581Z,30.30
2022-12-12T13:30:56.042Z,29.02
2022-12-12T13:33:48.189Z,27.00
2022-12-12T13:36:39.572Z,32.05
2022-12-12T13:39:31.459Z,26.55
2022-12-12T13:42:21.454Z,31.65
2022-12-12T13:45:35.580Z,32.38
2022-12-12T13:48:46.800Z,30.27
2022-12-12T13:51:38.760Z,29.63
2022-12-12T13:54:55.592Z,31.50
2022-12-12T13:58:08.246Z,31.70
2022-12-12T14:01:39.201Z,28.13
2022-12-12T14:04:30.167Z,21.05
2022-12-12T14:07:22.764Z,29.27
2022-12-12T14:10:20.439Z,28.02
2022-12-12T14:13:38.825Z,29.02
2022-12-12T14:16:28.001Z,31.05
2022-12-12T14:19:29.224Z,33.03
2022-12-12T14:22:28.158Z,32.35
2022-12-12T14:25:21.332Z,29.23
2022-12-12T14:28:19.711Z,29.73
2022-12-12T14:31:15.637Z,30.92
2022-12-12T14:34:21.159Z,31.90
2022-12-12T14:37:32.789Z,28.55
2022-12-12T14:40:23.762Z,26.30
2022-12-12T14:43:23.015Z,31.15
2022-12-12T14:46:17.201Z,29.73
2022-12-12T14:49:07.274Z,28.92
2022-12-12T14:51:57.827Z,29.73
2022-12-12T14:54:46.740Z,30.50
2022-12-12T14:57:35.288Z,27.80
2022-12-12T15:00:24.266Z,28.70
2022-12-12T15:03:14.396Z,31.48
2022-12-12T15:06:37.622Z,35.25
2022-12-12T15:09:30.434Z,40.50
2022-12-12T15:12:20.848Z,33.55
2022-12-12T15:15:24.566Z,31.35
2022-12-12T15:18:19.057Z,31.92
2022-12-12T15:21:07.509Z,33.10
2022-12-12T15:23:55.975Z,41.03
2022-12-12T15:26:46.170Z,28.90
2022-12-12T15:29:36.506Z,27.48
2022-12-12T15:32:27.260Z,29.47
2022-12-12T15:35:20.308Z,28.85
2022-12-12T15:38:14.104Z,29.77
2022-12-12T15:41:09.724Z,28.92
2022-12-12T15:43:59.872Z,31.10
2022-12-12T15:46:51.678Z,29.70
2022-12-12T15:49:41.498Z,33.35
2022-12-12T15:52:32.562Z,28.83
2022-12-12T15:55:24.740Z,27.27
2022-12-12T15:58:28.991Z,27.85
2022-12-12T16:01:21.972Z,27.73
2022-12-12T16:04:25.178Z,28.33
2022-12-12T16:07:22.705Z,29.75
2022-12-12T16:10:24.091Z,28.55
2022-12-12T16:16:38.101Z,27.58
2022-12-12T16:19:42.156Z,29.30
2022-12-12T16:22:34.747Z,27.25
2022-12-12T16:25:26.277Z,28.27
2022-12-12T16:28:25.350Z,27.15
2022-12-12T16:31:18.467Z,22.77
2022-12-12T16:34:07.284Z,26.40
2022-12-12T16:36:55.655Z,24.35
2022-12-12T16:39:44.181Z,25.90
2022-12-12T16:42:36.874Z,25.58
2022-12-12T16:45:25.349Z,26.48
2022-12-12T16:48:16.636Z,23.90
2022-12-12T16:51:07.371Z,27.83
2022-12-12T16:53:56.127Z,25.20
2022-12-12T16:56:44.522Z,26.88
2022-12-12T16:59:34.305Z,27.05
2022-12-12T17:02:25.549Z,25.10
2022-12-12T17:08:05.184Z,26.92
2022-12-12T17:11:10.660Z,25.45
2022-12-12T17:13:59.422Z,26.02
2022-12-12T17:16:50.072Z,25.73
2022-12-12T17:19:38.468Z,18.92
2022-12-12T17:22:26.912Z,24.50
2022-12-12T17:25:15.543Z,27.30
2022-12-12T17:28:04.519Z,28.27
2022-12-12T17:30:53.724Z,41.95
2022-12-12T17:33:50.548Z,36.40
2022-12-12T17:36:39.665Z,95.90
2022-12-12T17:39:27.955Z,88.75
2022-12-12T17:42:16.371Z,37.40
2022-12-12T17:45:05.644Z,27.95
2022-12-12T17:47:53.993Z,25.88
2022-12-12T17:50:43.714Z,27.35
2022-12-12T17:53:36.674Z,26.85
2022-12-12T17:56:26.215Z,26.77
2022-12-12T17:59:14.596Z,26.75
2022-12-12T18:02:03.006Z,26.15
2022-12-12T18:04:51.410Z,26.17
2022-12-12T18:07:41.169Z,26.17
2022-12-12T18:10:29.511Z,29.38
2022-12-12T18:13:17.940Z,30.95
2022-12-12T18:16:07.970Z,26.88
2022-12-12T18:18:56.859Z,26.10
2022-12-12T18:22:02.063Z,29.17
2022-12-12T18:24:52.196Z,29.45
2022-12-12T18:27:40.574Z,27.40
2022-12-12T18:30:28.867Z,26.85
2022-12-12T18:33:17.226Z,27.63
2022-12-12T18:36:07.630Z,28.75
2022-12-12T18:38:57.115Z,26.80
2022-12-12T18:41:46.803Z,31.02
2022-12-12T18:44:35.281Z,35.90
2022-12-12T18:47:23.612Z,32.30
2022-12-12T18:50:12.768Z,34.35
2022-12-12T18:53:01.292Z,30.83
2022-12-12T18:55:49.638Z,31.67
2022-12-12T18:58:39.929Z,36.83
2022-12-12T19:01:30.515Z,30.77
2022-12-12T19:04:23.252Z,20.90
2022-12-12T19:07:12.290Z,32.03
2022-12-12T19:10:00.580Z,28.63
2022-12-12T19:12:49.005Z,27.80
2022-12-12T19:15:38.670Z,30.63
2022-12-12T19:18:27.017Z,28.48
2022-12-12T19:21:16.854Z,33.53
2022-12-12T19:24:09.209Z,30.50
2022-12-12T19:26:57.630Z,31.00
2022-12-12T19:29:45.991Z,31.30
2022-12-12T19:32:35.652Z,31.98
2022-12-12T19:35:24.357Z,31.30
2022-12-12T19:38:12.703Z,30.47
2022-12-12T19:41:04.138Z,39.23
2022-12-12T19:43:54.135Z,36.33
2022-12-12T19:46:46.143Z,40.17
2022-12-12T19:49:35.825Z,40.17
2022-12-12T19:52:24.200Z,37.97
2022-12-12T19:55:12.519Z,43.37
2022-12-12T19:58:02.545Z,42.33
2022-12-12T20:00:51.287Z,40.93
2022-12-12T20:03:39.979Z,40.47
2022-12-12T20:06:30.117Z,40.60
2022-12-12T20:09:21.474Z,37.40
2022-12-12T20:12:09.822Z,35.33
2022-12-12T20:14:58.276Z,39.03
2022-12-12T20:17:46.652Z,36.33
2022-12-12T20:20:35.019Z,41.60
2022-12-12T20:23:24.701Z,38.93
2022-12-12T20:26:15.273Z,39.50
2022-12-12T20:29:04.305Z,26.58
2022-12-12T20:31:52.794Z,38.10
2022-12-12T20:34:41.179Z,37.77
2022-12-12T20:37:29.519Z,37.97
2022-12-12T20:40:19.446Z,36.90
2022-12-12T20:43:07.948Z,38.23
2022-12-12T20:45:56.654Z,39.73
2022-12-12T20:48:45.774Z,53.83
2022-12-12T20:54:42.864Z,42.27
2022-12-12T20:57:32.496Z,40.53
2022-12-12T21:00:20.979Z,42.10
2022-12-12T21:03:09.318Z,42.47
2022-12-12T21:05:59.554Z,37.83
2022-12-12T21:08:48.423Z,37.40
2022-12-12T21:11:37.241Z,37.33
2022-12-12T21:14:27.894Z,41.53
2022-12-12T21:17:16.291Z,27.83
2022-12-12T21:20:06.839Z,37.27
2022-12-12T21:22:55.387Z,28.90
2022-12-12T21:25:43.692Z,45.53
2022-12-12T21:28:32.053Z,40.30
2022-12-12T21:31:24.107Z,36.23
2022-12-12T21:34:12.955Z,36.03
2022-12-12T21:37:01.600Z,36.93
2022-12-12T21:39:52.607Z,42.97
2022-12-12T21:42:40.928Z,44.80
2022-12-12T21:45:29.301Z,39.07
2022-12-12T21:48:19.022Z,39.17
2022-12-12T21:51:10.354Z,36.97
2022-12-12T21:53:58.813Z,46.50
2022-12-12T21:56:47.323Z,40.23
2022-12-12T21:59:37.514Z,36.70
2022-12-12T22:02:25.841Z,39.37
2022-12-12T22:05:16.013Z,36.40
2022-12-12T22:08:04.596Z,31.38
2022-12-12T22:10:54.474Z,36.93
2022-12-12T22:13:43.640Z,39.30
2022-12-12T22:16:33.843Z,36.30
2022-12-12T22:19:22.148Z,43.53
2022-12-12T22:22:11.947Z,43.67
2022-12-12T22:25:00.276Z,39.17
2022-12-12T22:27:48.644Z,37.93
2022-12-12T22:30:37.004Z,42.03
2022-12-12T22:33:25.346Z,42.47
2022-12-12T22:36:14.887Z,41.47
2022-12-12T22:39:06.172Z,40.93
2022-12-12T22:44:42.973Z,41.27
2022-12-12T22:47:31.324Z,40.13
2022-12-12T22:50:19.781Z,43.83
2022-12-12T22:53:08.646Z,39.83
2022-12-12T22:56:02.542Z,36.37
2022-12-12T22:58:50.913Z,37.63
2022-12-12T23:01:39.350Z,40.93
2022-12-12T23:04:28.594Z,40.17
2022-12-12T23:07:17.035Z,36.23
2022-12-12T23:10:06.116Z,40.03
2022-12-12T23:12:55.819Z,35.83
2022-12-12T23:15:44.117Z,36.87
2022-12-12T23:18:32.581Z,33.90
2022-12-12T23:21:23.319Z,35.10
2022-12-12T23:24:11.697Z,38.72
2022-12-12T23:27:00.082Z,39.33
2022-12-12T23:29:49.802Z,37.37
2022-12-12T23:32:38.201Z,37.20
2022-12-12T23:35:26.503Z,37.40
2022-12-12T23:38:15.055Z,32.43
2022-12-12T23:41:04.698Z,34.13
2022-12-12T23:43:53.474Z,39.03
2022-12-12T23:46:43.594Z,39.53
2022-12-12T23:49:31.908Z,37.20
2022-12-12T23:52:20.269Z,30.97
2022-12-12T23:55:09.608Z,40.37
2022-12-12T23:57:57.955Z,39.50
